sensor_id;sensor_type;location;lat;lon;timestamp;temperature;humidity
17333;DHT22;8784;50.94667800;7.08448400;2022-08-14T00:01:23;24.10;52.10
17333;DHT22;8784;50.94667800;7.08448400;2022-08-14T00:03:51;24.20;52.30
17333;DHT22;8784;50.94667800;7.08448400;2022-08-14T00:06:18;24.10;52.40
17333;DHT22;8784;50.94667800;7.08448400;2022-08-14T00:08:45;24.10;53.20
17333;DHT22;8784;50.94667800;7.08448400;2022-08-14T00:11:12;24.10;52.60
17333;DHT22;8784;50.94667800;7.08448400;2022-08-14T00:13:39;24.10;52.70
17333;DHT22;8784;50.94667800;7.08448400;2022-08-14T00:16:06;24.10;53.40
17333;DHT22;8784;50.94667800;7.08448400;2022-08-14T00:18:34;24.10;53.00
17333;DHT22;8784;50.94667800;7.08448400;2022-08-14T00:21:03;24.10;53.20
17333;DHT22;8784;50.94667800;7.08448400;2022-08-14T00:23:30;24.00;53.10
17333;DHT22;8784;50.94667800;7.08448400;2022-08-14T00:25:57;24.00;53.30
17333;DHT22;8784;50.94667800;7.08448400;2022-08-14T00:28:26;24.00;53.50
17333;DHT22;8784;50.94667800;7.08448400;2022-08-14T00:30:55;23.90;53.60
17333;DHT22;8784;50.94667800;7.08448400;2022-08-14T00:33:25;23.90;53.70
17333;DHT22;8784;50.94667800;7.08448400;2022-08-14T00:35:52;23.80;54.00
17333;DHT22;8784;50.94667800;7.08448400;2022-08-14T00:38:21;23.80;54.30
17333;DHT22;8784;50.94667800;7.08448400;2022-08-14T00:40:48;23.80;54.40
17333;DHT22;8784;50.94667800;7.08448400;2022-08-14T00:43:16;23.70;54.50
17333;DHT22;8784;50.94667800;7.08448400;2022-08-14T00:45:43;23.70;54.60
17333;DHT22;8784;50.94667800;7.08448400;2022-08-14T00:48:11;23.70;54.80
17333;DHT22;8784;50.94667800;7.08448400;2022-08-14T00:50:38;23.70;55.00
17333;DHT22;8784;50.94667800;7.08448400;2022-08-14T00:53:06;23.60;55.00
17333;DHT22;8784;50.94667800;7.08448400;2022-08-14T00:55:36;23.60;55.30
17333;DHT22;8784;50.94667800;7.08448400;2022-08-14T00:58:06;23.50;55.20
17333;DHT22;8784;50.94667800;7.08448400;2022-08-14T01:00:51;23.50;55.60
17333;DHT22;8784;50.94667800;7.08448400;2022-08-14T01:03:19;23.40;55.50
17333;DHT22;8784;50.94667800;7.08448400;2022-08-14T01:05:48;23.40;56.00
17333;DHT22;8784;50.94667800;7.08448400;2022-08-14T01:08:18;23.40;55.90
17333;DHT22;8784;50.94667800;7.08448400;2022-08-14T01:10:47;23.40;56.10
17333;DHT22;8784;50.94667800;7.08448400;2022-08-14T01:13:20;23.30;56.30
17333;DHT22;8784;50.94667800;7.08448400;2022-08-14T01:15:49;23.40;56.40
17333;DHT22;8784;50.94667800;7.08448400;2022-08-14T01:18:16;23.40;56.40
17333;DHT22;8784;50.94667800;7.08448400;2022-08-14T01:21:00;23.40;56.40
17333;DHT22;8784;50.94667800;7.08448400;2022-08-14T01:23:33;23.40;56.80
17333;DHT22;8784;50.94667800;7.08448400;2022-08-14T01:26:02;23.50;56.70
17333;DHT22;8784;50.94667800;7.08448400;2022-08-14T01:28:31;23.50;56.80
17333;DHT22;8784;50.94667800;7.08448400;2022-08-14T01:31:04;23.40;56.80
17333;DHT22;8784;50.94667800;7.08448400;2022-08-14T01:33:34;23.40;56.80
17333;DHT22;8784;50.94667800;7.08448400;2022-08-14T01:36:03;23.40;56.90
17333;DHT22;8784;50.94667800;7.08448400;2022-08-14T01:38:32;23.40;56.90
17333;DHT22;8784;50.94667800;7.08448400;2022-08-14T01:40:59;23.40;57.10
17333;DHT22;8784;50.94667800;7.08448400;2022-08-14T01:43:27;23.30;57.30
17333;DHT22;8784;50.94667800;7.08448400;2022-08-14T01:45:57;23.30;57.30
17333;DHT22;8784;50.94667800;7.08448400;2022-08-14T01:48:25;23.30;57.40
17333;DHT22;8784;50.94667800;7.08448400;2022-08-14T01:50:55;23.20;57.60
17333;DHT22;8784;50.94667800;7.08448400;2022-08-14T01:53:22;23.20;57.80
17333;DHT22;8784;50.94667800;7.08448400;2022-08-14T01:55:51;23.20;57.80
17333;DHT22;8784;50.94667800;7.08448400;2022-08-14T01:58:22;23.20;57.90
17333;DHT22;8784;50.94667800;7.08448400;2022-08-14T02:00:54;23.20;58.00
17333;DHT22;8784;50.94667800;7.08448400;2022-08-14T02:03:24;23.10;58.10
17333;DHT22;8784;50.94667800;7.08448400;2022-08-14T02:05:53;23.10;58.40
17333;DHT22;8784;50.94667800;7.08448400;2022-08-14T02:08:24;23.10;58.30
17333;DHT22;8784;50.94667800;7.08448400;2022-08-14T02:10:56;23.00;58.60
17333;DHT22;8784;50.94667800;7.08448400;2022-08-14T02:13:38;23.00;58.70
17333;DHT22;8784;50.94667800;7.08448400;2022-08-14T02:16:08;23.00;58.50
17333;DHT22;8784;50.94667800;7.08448400;2022-08-14T02:18:36;22.90;58.90
17333;DHT22;8784;50.94667800;7.08448400;2022-08-14T02:21:04;22.90;59.00
17333;DHT22;8784;50.94667800;7.08448400;2022-08-14T02:23:32;22.80;59.10
17333;DHT22;8784;50.94667800;7.08448400;2022-08-14T02:26:02;22.90;59.10
17333;DHT22;8784;50.94667800;7.08448400;2022-08-14T02:28:32;22.90;59.20
17333;DHT22;8784;50.94667800;7.08448400;2022-08-14T02:30:59;22.90;59.40
17333;DHT22;8784;50.94667800;7.08448400;2022-08-14T02:33:26;22.90;59.40
17333;DHT22;8784;50.94667800;7.08448400;2022-08-14T02:35:53;23.00;59.30
17333;DHT22;8784;50.94667800;7.08448400;2022-08-14T02:38:21;23.00;59.50
17333;DHT22;8784;50.94667800;7.08448400;2022-08-14T02:40:48;23.10;59.70
17333;DHT22;8784;50.94667800;7.08448400;2022-08-14T02:43:17;23.00;59.60
17333;DHT22;8784;50.94667800;7.08448400;2022-08-14T02:45:45;23.10;59.90
17333;DHT22;8784;50.94667800;7.08448400;2022-08-14T02:48:14;23.10;59.60
17333;DHT22;8784;50.94667800;7.08448400;2022-08-14T02:50:41;23.10;59.60
17333;DHT22;8784;50.94667800;7.08448400;2022-08-14T02:53:09;23.10;59.80
17333;DHT22;8784;50.94667800;7.08448400;2022-08-14T02:55:37;23.10;59.90
17333;DHT22;8784;50.94667800;7.08448400;2022-08-14T02:58:05;23.00;59.80
17333;DHT22;8784;50.94667800;7.08448400;2022-08-14T03:00:34;23.00;60.00
17333;DHT22;8784;50.94667800;7.08448400;2022-08-14T03:03:01;23.00;60.10
17333;DHT22;8784;50.94667800;7.08448400;2022-08-14T03:05:29;22.90;60.10
17333;DHT22;8784;50.94667800;7.08448400;2022-08-14T03:08:04;22.90;60.60
17333;DHT22;8784;50.94667800;7.08448400;2022-08-14T03:10:31;22.80;60.70
17333;DHT22;8784;50.94667800;7.08448400;2022-08-14T03:12:59;22.80;61.00
17333;DHT22;8784;50.94667800;7.08448400;2022-08-14T03:15:29;22.80;61.10
17333;DHT22;8784;50.94667800;7.08448400;2022-08-14T03:17:59;22.80;61.10
17333;DHT22;8784;50.94667800;7.08448400;2022-08-14T03:20:28;22.80;61.80
17333;DHT22;8784;50.94667800;7.08448400;2022-08-14T03:22:56;22.70;60.90
17333;DHT22;8784;50.94667800;7.08448400;2022-08-14T03:25:25;22.70;61.00
17333;DHT22;8784;50.94667800;7.08448400;2022-08-14T03:27:55;22.60;61.20
17333;DHT22;8784;50.94667800;7.08448400;2022-08-14T03:30:22;22.60;61.30
17333;DHT22;8784;50.94667800;7.08448400;2022-08-14T03:32:49;22.60;61.70
17333;DHT22;8784;50.94667800;7.08448400;2022-08-14T03:35:18;22.50;61.70
17333;DHT22;8784;50.94667800;7.08448400;2022-08-14T03:37:46;22.50;61.90
17333;DHT22;8784;50.94667800;7.08448400;2022-08-14T03:40:13;22.40;62.70
17333;DHT22;8784;50.94667800;7.08448400;2022-08-14T03:42:40;22.40;62.30
17333;DHT22;8784;50.94667800;7.08448400;2022-08-14T03:45:07;22.30;62.30
17333;DHT22;8784;50.94667800;7.08448400;2022-08-14T03:47:34;22.20;62.40
17333;DHT22;8784;50.94667800;7.08448400;2022-08-14T03:50:05;22.20;62.60
17333;DHT22;8784;50.94667800;7.08448400;2022-08-14T03:52:35;22.20;62.60
17333;DHT22;8784;50.94667800;7.08448400;2022-08-14T03:55:03;22.20;62.60
17333;DHT22;8784;50.94667800;7.08448400;2022-08-14T03:57:31;22.10;63.10
17333;DHT22;8784;50.94667800;7.08448400;2022-08-14T04:00:00;22.10;63.50
17333;DHT22;8784;50.94667800;7.08448400;2022-08-14T04:02:31;22.10;63.70
17333;DHT22;8784;50.94667800;7.08448400;2022-08-14T04:04:58;22.00;63.60
17333;DHT22;8784;50.94667800;7.08448400;2022-08-14T04:07:26;22.00;63.60
17333;DHT22;8784;50.94667800;7.08448400;2022-08-14T04:09:54;22.00;63.60
17333;DHT22;8784;50.94667800;7.08448400;2022-08-14T04:12:21;21.90;63.60
17333;DHT22;8784;50.94667800;7.08448400;2022-08-14T04:14:48;21.80;64.00
17333;DHT22;8784;50.94667800;7.08448400;2022-08-14T04:17:17;21.70;64.40
17333;DHT22;8784;50.94667800;7.08448400;2022-08-14T04:19:44;21.70;64.50
17333;DHT22;8784;50.94667800;7.08448400;2022-08-14T04:22:12;21.60;64.50
17333;DHT22;8784;50.94667800;7.08448400;2022-08-14T04:24:40;21.60;64.60
17333;DHT22;8784;50.94667800;7.08448400;2022-08-14T04:27:10;21.60;64.60
17333;DHT22;8784;50.94667800;7.08448400;2022-08-14T04:29:39;21.60;64.60
17333;DHT22;8784;50.94667800;7.08448400;2022-08-14T04:32:08;21.50;64.90
17333;DHT22;8784;50.94667800;7.08448400;2022-08-14T04:34:36;21.40;65.20
17333;DHT22;8784;50.94667800;7.08448400;2022-08-14T04:37:07;21.30;65.40
17333;DHT22;8784;50.94667800;7.08448400;2022-08-14T04:39:52;21.30;65.70
17333;DHT22;8784;50.94667800;7.08448400;2022-08-14T04:42:39;21.30;65.80
17333;DHT22;8784;50.94667800;7.08448400;2022-08-14T04:45:25;21.30;65.70
17333;DHT22;8784;50.94667800;7.08448400;2022-08-14T04:47:57;21.30;65.80
17333;DHT22;8784;50.94667800;7.08448400;2022-08-14T04:50:41;21.30;65.70
17333;DHT22;8784;50.94667800;7.08448400;2022-08-14T04:53:10;21.40;65.70
17333;DHT22;8784;50.94667800;7.08448400;2022-08-14T04:55:39;21.40;65.80
17333;DHT22;8784;50.94667800;7.08448400;2022-08-14T04:58:09;21.40;65.70
17333;DHT22;8784;50.94667800;7.08448400;2022-08-14T05:00:36;21.40;65.60
17333;DHT22;8784;50.94667800;7.08448400;2022-08-14T05:03:06;21.50;65.90
17333;DHT22;8784;50.94667800;7.08448400;2022-08-14T05:05:33;21.40;65.90
17333;DHT22;8784;50.94667800;7.08448400;2022-08-14T05:08:08;21.40;66.00
17333;DHT22;8784;50.94667800;7.08448400;2022-08-14T05:10:41;21.40;66.10
17333;DHT22;8784;50.94667800;7.08448400;2022-08-14T05:13:10;21.40;66.30
17333;DHT22;8784;50.94667800;7.08448400;2022-08-14T05:15:39;21.40;66.20
17333;DHT22;8784;50.94667800;7.08448400;2022-08-14T05:18:08;21.40;66.30
17333;DHT22;8784;50.94667800;7.08448400;2022-08-14T05:20:39;22.30;66.80
17333;DHT22;8784;50.94667800;7.08448400;2022-08-14T05:23:11;21.50;66.40
17333;DHT22;8784;50.94667800;7.08448400;2022-08-14T05:25:39;21.50;66.50
17333;DHT22;8784;50.94667800;7.08448400;2022-08-14T05:28:12;21.50;66.70
17333;DHT22;8784;50.94667800;7.08448400;2022-08-14T05:30:45;21.50;67.40
17333;DHT22;8784;50.94667800;7.08448400;2022-08-14T05:33:16;21.60;66.80
17333;DHT22;8784;50.94667800;7.08448400;2022-08-14T05:35:46;21.60;66.90
17333;DHT22;8784;50.94667800;7.08448400;2022-08-14T05:38:16;21.70;67.00
17333;DHT22;8784;50.94667800;7.08448400;2022-08-14T05:40:45;21.70;66.90
17333;DHT22;8784;50.94667800;7.08448400;2022-08-14T05:43:15;21.70;67.00
17333;DHT22;8784;50.94667800;7.08448400;2022-08-14T05:45:43;21.70;67.10
17333;DHT22;8784;50.94667800;7.08448400;2022-08-14T05:48:13;21.80;67.20
17333;DHT22;8784;50.94667800;7.08448400;2022-08-14T05:50:42;21.80;67.20
17333;DHT22;8784;50.94667800;7.08448400;2022-08-14T05:53:10;21.90;67.20
17333;DHT22;8784;50.94667800;7.08448400;2022-08-14T05:55:37;22.00;67.10
17333;DHT22;8784;50.94667800;7.08448400;2022-08-14T05:58:06;22.10;67.10
17333;DHT22;8784;50.94667800;7.08448400;2022-08-14T06:00:36;22.10;67.10
17333;DHT22;8784;50.94667800;7.08448400;2022-08-14T06:03:06;22.20;66.90
17333;DHT22;8784;50.94667800;7.08448400;2022-08-14T06:05:34;22.30;66.90
17333;DHT22;8784;50.94667800;7.08448400;2022-08-14T06:08:01;22.30;66.70
17333;DHT22;8784;50.94667800;7.08448400;2022-08-14T06:10:29;22.50;66.80
17333;DHT22;8784;50.94667800;7.08448400;2022-08-14T06:12:57;22.50;66.50
17333;DHT22;8784;50.94667800;7.08448400;2022-08-14T06:15:26;22.60;66.50
17333;DHT22;8784;50.94667800;7.08448400;2022-08-14T06:17:56;22.70;66.50
17333;DHT22;8784;50.94667800;7.08448400;2022-08-14T06:20:24;22.90;66.40
17333;DHT22;8784;50.94667800;7.08448400;2022-08-14T06:22:51;23.00;66.20
17333;DHT22;8784;50.94667800;7.08448400;2022-08-14T06:25:18;23.10;66.10
17333;DHT22;8784;50.94667800;7.08448400;2022-08-14T06:27:47;23.20;66.00
17333;DHT22;8784;50.94667800;7.08448400;2022-08-14T06:30:16;23.40;65.70
17333;DHT22;8784;50.94667800;7.08448400;2022-08-14T06:32:44;23.50;65.70
17333;DHT22;8784;50.94667800;7.08448400;2022-08-14T06:35:13;23.70;65.40
17333;DHT22;8784;50.94667800;7.08448400;2022-08-14T06:37:44;24.00;65.00
17333;DHT22;8784;50.94667800;7.08448400;2022-08-14T06:40:14;24.50;64.60
17333;DHT22;8784;50.94667800;7.08448400;2022-08-14T06:42:41;25.50;64.30
17333;DHT22;8784;50.94667800;7.08448400;2022-08-14T06:45:09;26.80;64.20
17333;DHT22;8784;50.94667800;7.08448400;2022-08-14T06:47:38;27.90;63.80
17333;DHT22;8784;50.94667800;7.08448400;2022-08-14T06:50:08;29.10;63.30
17333;DHT22;8784;50.94667800;7.08448400;2022-08-14T06:52:37;30.10;62.30
17333;DHT22;8784;50.94667800;7.08448400;2022-08-14T06:55:04;31.30;60.90
17333;DHT22;8784;50.94667800;7.08448400;2022-08-14T06:57:35;32.40;59.30
17333;DHT22;8784;50.94667800;7.08448400;2022-08-14T07:00:05;33.30;58.00
17333;DHT22;8784;50.94667800;7.08448400;2022-08-14T07:02:33;34.00;56.80
17333;DHT22;8784;50.94667800;7.08448400;2022-08-14T07:05:17;34.70;56.10
17333;DHT22;8784;50.94667800;7.08448400;2022-08-14T07:08:03;35.40;54.80
17333;DHT22;8784;50.94667800;7.08448400;2022-08-14T07:10:30;35.90;53.80
17333;DHT22;8784;50.94667800;7.08448400;2022-08-14T07:12:59;36.10;53.60
17333;DHT22;8784;50.94667800;7.08448400;2022-08-14T07:15:26;36.10;53.40
17333;DHT22;8784;50.94667800;7.08448400;2022-08-14T07:17:53;36.30;52.70
17333;DHT22;8784;50.94667800;7.08448400;2022-08-14T07:20:20;36.50;52.00
17333;DHT22;8784;50.94667800;7.08448400;2022-08-14T07:22:47;36.40;51.70
17333;DHT22;8784;50.94667800;7.08448400;2022-08-14T07:25:16;36.30;51.60
17333;DHT22;8784;50.94667800;7.08448400;2022-08-14T07:27:44;36.10;51.90
17333;DHT22;8784;50.94667800;7.08448400;2022-08-14T07:30:11;36.00;51.70
17333;DHT22;8784;50.94667800;7.08448400;2022-08-14T07:32:39;35.90;51.90
17333;DHT22;8784;50.94667800;7.08448400;2022-08-14T07:35:07;36.10;51.10
17333;DHT22;8784;50.94667800;7.08448400;2022-08-14T07:37:34;36.40;50.40
17333;DHT22;8784;50.94667800;7.08448400;2022-08-14T07:40:02;36.60;50.20
17333;DHT22;8784;50.94667800;7.08448400;2022-08-14T07:42:31;36.70;49.60
17333;DHT22;8784;50.94667800;7.08448400;2022-08-14T07:44:59;36.80;49.40
17333;DHT22;8784;50.94667800;7.08448400;2022-08-14T07:47:26;36.90;49.20
17333;DHT22;8784;50.94667800;7.08448400;2022-08-14T07:49:59;37.00;48.90
17333;DHT22;8784;50.94667800;7.08448400;2022-08-14T07:52:27;37.30;48.30
17333;DHT22;8784;50.94667800;7.08448400;2022-08-14T07:54:54;37.40;48.30
17333;DHT22;8784;50.94667800;7.08448400;2022-08-14T07:57:21;36.90;48.40
17333;DHT22;8784;50.94667800;7.08448400;2022-08-14T07:59:50;36.70;48.60
17333;DHT22;8784;50.94667800;7.08448400;2022-08-14T08:02:17;36.60;48.40
17333;DHT22;8784;50.94667800;7.08448400;2022-08-14T08:04:47;36.60;48.30
17333;DHT22;8784;50.94667800;7.08448400;2022-08-14T08:07:15;36.60;48.40
17333;DHT22;8784;50.94667800;7.08448400;2022-08-14T08:09:53;36.70;48.50
17333;DHT22;8784;50.94667800;7.08448400;2022-08-14T08:12:21;36.90;47.90
17333;DHT22;8784;50.94667800;7.08448400;2022-08-14T08:14:50;37.00;48.00
17333;DHT22;8784;50.94667800;7.08448400;2022-08-14T08:17:18;37.10;47.30
17333;DHT22;8784;50.94667800;7.08448400;2022-08-14T08:19:45;37.20;47.10
17333;DHT22;8784;50.94667800;7.08448400;2022-08-14T08:22:13;37.40;46.60
17333;DHT22;8784;50.94667800;7.08448400;2022-08-14T08:24:40;37.50;46.50
17333;DHT22;8784;50.94667800;7.08448400;2022-08-14T08:27:14;37.30;46.30
17333;DHT22;8784;50.94667800;7.08448400;2022-08-14T08:29:41;36.80;46.70
17333;DHT22;8784;50.94667800;7.08448400;2022-08-14T08:32:09;36.50;46.80
17333;DHT22;8784;50.94667800;7.08448400;2022-08-14T08:34:44;36.50;46.60
17333;DHT22;8784;50.94667800;7.08448400;2022-08-14T08:37:11;36.40;46.70
17333;DHT22;8784;50.94667800;7.08448400;2022-08-14T08:39:42;36.30;46.60
17333;DHT22;8784;50.94667800;7.08448400;2022-08-14T08:42:10;36.10;46.50
17333;DHT22;8784;50.94667800;7.08448400;2022-08-14T08:44:37;36.00;46.60
17333;DHT22;8784;50.94667800;7.08448400;2022-08-14T08:47:04;36.00;46.60
17333;DHT22;8784;50.94667800;7.08448400;2022-08-14T08:49:41;35.70;46.40
17333;DHT22;8784;50.94667800;7.08448400;2022-08-14T08:52:09;35.70;46.30
17333;DHT22;8784;50.94667800;7.08448400;2022-08-14T08:54:38;35.50;46.20
17333;DHT22;8784;50.94667800;7.08448400;2022-08-14T08:57:10;35.20;46.30
17333;DHT22;8784;50.94667800;7.08448400;2022-08-14T08:59:38;35.10;46.30
17333;DHT22;8784;50.94667800;7.08448400;2022-08-14T09:02:07;35.20;46.30
17333;DHT22;8784;50.94667800;7.08448400;2022-08-14T09:04:36;35.10;46.10
17333;DHT22;8784;50.94667800;7.08448400;2022-08-14T09:07:05;35.10;46.30
17333;DHT22;8784;50.94667800;7.08448400;2022-08-14T09:09:33;35.30;45.90
17333;DHT22;8784;50.94667800;7.08448400;2022-08-14T09:12:16;35.60;45.70
17333;DHT22;8784;50.94667800;7.08448400;2022-08-14T09:14:44;35.80;45.80
17333;DHT22;8784;50.94667800;7.08448400;2022-08-14T09:17:12;36.10;45.60
17333;DHT22;8784;50.94667800;7.08448400;2022-08-14T09:19:40;36.30;45.30
17333;DHT22;8784;50.94667800;7.08448400;2022-08-14T09:22:09;36.50;45.30
17333;DHT22;8784;50.94667800;7.08448400;2022-08-14T09:24:38;36.60;45.00
17333;DHT22;8784;50.94667800;7.08448400;2022-08-14T09:27:05;36.70;45.20
17333;DHT22;8784;50.94667800;7.08448400;2022-08-14T09:29:33;36.90;44.80
17333;DHT22;8784;50.94667800;7.08448400;2022-08-14T09:32:02;36.80;44.80
17333;DHT22;8784;50.94667800;7.08448400;2022-08-14T09:34:47;36.80;44.70
17333;DHT22;8784;50.94667800;7.08448400;2022-08-14T09:37:31;37.10;44.40
17333;DHT22;8784;50.94667800;7.08448400;2022-08-14T09:40:04;37.40;43.90
17333;DHT22;8784;50.94667800;7.08448400;2022-08-14T09:42:43;37.60;43.50
17333;DHT22;8784;50.94667800;7.08448400;2022-08-14T09:45:15;37.50;43.20
17333;DHT22;8784;50.94667800;7.08448400;2022-08-14T09:47:45;37.60;43.60
17333;DHT22;8784;50.94667800;7.08448400;2022-08-14T09:50:24;37.80;43.50
17333;DHT22;8784;50.94667800;7.08448400;2022-08-14T09:52:56;38.00;42.20
17333;DHT22;8784;50.94667800;7.08448400;2022-08-14T09:55:25;38.10;42.30
17333;DHT22;8784;50.94667800;7.08448400;2022-08-14T09:58:07;38.30;42.10
17333;DHT22;8784;50.94667800;7.08448400;2022-08-14T10:00:43;38.30;42.00
17333;DHT22;8784;50.94667800;7.08448400;2022-08-14T10:03:11;38.40;42.30
17333;DHT22;8784;50.94667800;7.08448400;2022-08-14T10:05:38;38.50;41.60
17333;DHT22;8784;50.94667800;7.08448400;2022-08-14T10:08:18;38.40;41.20
17333;DHT22;8784;50.94667800;7.08448400;2022-08-14T10:10:46;38.10;41.10
17333;DHT22;8784;50.94667800;7.08448400;2022-08-14T10:13:21;38.10;41.60
17333;DHT22;8784;50.94667800;7.08448400;2022-08-14T10:15:49;38.20;41.40
17333;DHT22;8784;50.94667800;7.08448400;2022-08-14T10:18:17;38.40;41.40
17333;DHT22;8784;50.94667800;7.08448400;2022-08-14T10:20:52;38.70;40.80
17333;DHT22;8784;50.94667800;7.08448400;2022-08-14T10:23:23;38.90;40.40
17333;DHT22;8784;50.94667800;7.08448400;2022-08-14T10:25:52;38.80;40.40
17333;DHT22;8784;50.94667800;7.08448400;2022-08-14T10:28:23;38.90;40.10
17333;DHT22;8784;50.94667800;7.08448400;2022-08-14T10:30:50;38.80;39.80
17333;DHT22;8784;50.94667800;7.08448400;2022-08-14T10:33:27;38.80;39.70
17333;DHT22;8784;50.94667800;7.08448400;2022-08-14T10:35:55;38.80;39.30
17333;DHT22;8784;50.94667800;7.08448400;2022-08-14T10:38:27;38.80;39.60
17333;DHT22;8784;50.94667800;7.08448400;2022-08-14T10:41:07;38.90;39.60
17333;DHT22;8784;50.94667800;7.08448400;2022-08-14T10:43:38;39.00;39.70
17333;DHT22;8784;50.94667800;7.08448400;2022-08-14T10:46:12;39.20;39.50
17333;DHT22;8784;50.94667800;7.08448400;2022-08-14T10:48:39;39.20;39.00
17333;DHT22;8784;50.94667800;7.08448400;2022-08-14T10:51:07;39.20;39.20
17333;DHT22;8784;50.94667800;7.08448400;2022-08-14T10:53:36;39.10;39.40
17333;DHT22;8784;50.94667800;7.08448400;2022-08-14T10:56:10;38.90;39.40
17333;DHT22;8784;50.94667800;7.08448400;2022-08-14T10:58:38;38.90;39.20
17333;DHT22;8784;50.94667800;7.08448400;2022-08-14T11:01:06;38.80;39.50
17333;DHT22;8784;50.94667800;7.08448400;2022-08-14T11:03:37;38.60;39.50
17333;DHT22;8784;50.94667800;7.08448400;2022-08-14T11:06:13;38.30;40.20
17333;DHT22;8784;50.94667800;7.08448400;2022-08-14T11:08:44;38.00;39.30
17333;DHT22;8784;50.94667800;7.08448400;2022-08-14T11:11:11;37.60;40.00
17333;DHT22;8784;50.94667800;7.08448400;2022-08-14T11:13:40;37.20;40.10
17333;DHT22;8784;50.94667800;7.08448400;2022-08-14T11:16:11;36.60;40.10
17333;DHT22;8784;50.94667800;7.08448400;2022-08-14T11:18:40;36.30;40.00
17333;DHT22;8784;50.94667800;7.08448400;2022-08-14T11:21:14;35.80;40.30
17333;DHT22;8784;50.94667800;7.08448400;2022-08-14T11:23:44;35.70;40.50
17333;DHT22;8784;50.94667800;7.08448400;2022-08-14T11:26:13;35.70;40.60
17333;DHT22;8784;50.94667800;7.08448400;2022-08-14T11:28:42;35.70;40.80
17333;DHT22;8784;50.94667800;7.08448400;2022-08-14T11:31:10;35.60;40.70
17333;DHT22;8784;50.94667800;7.08448400;2022-08-14T11:33:39;35.30;40.60
17333;DHT22;8784;50.94667800;7.08448400;2022-08-14T11:36:08;35.10;40.80
17333;DHT22;8784;50.94667800;7.08448400;2022-08-14T11:38:36;34.90;41.10
17333;DHT22;8784;50.94667800;7.08448400;2022-08-14T11:41:04;34.90;41.10
17333;DHT22;8784;50.94667800;7.08448400;2022-08-14T11:43:36;34.80;41.20
17333;DHT22;8784;50.94667800;7.08448400;2022-08-14T11:46:05;34.80;41.20
17333;DHT22;8784;50.94667800;7.08448400;2022-08-14T11:48:32;34.70;41.20
17333;DHT22;8784;50.94667800;7.08448400;2022-08-14T11:50:59;34.50;41.30
17333;DHT22;8784;50.94667800;7.08448400;2022-08-14T11:53:27;34.30;41.50
17333;DHT22;8784;50.94667800;7.08448400;2022-08-14T11:55:57;34.30;41.60
17333;DHT22;8784;50.94667800;7.08448400;2022-08-14T11:58:29;34.40;41.70
17333;DHT22;8784;50.94667800;7.08448400;2022-08-14T12:00:58;34.30;41.50
17333;DHT22;8784;50.94667800;7.08448400;2022-08-14T12:03:37;33.90;41.70
17333;DHT22;8784;50.94667800;7.08448400;2022-08-14T12:06:06;33.90;41.80
17333;DHT22;8784;50.94667800;7.08448400;2022-08-14T12:08:34;33.80;41.90
17333;DHT22;8784;50.94667800;7.08448400;2022-08-14T12:11:01;33.90;42.70
17333;DHT22;8784;50.94667800;7.08448400;2022-08-14T12:13:31;34.00;42.80
17333;DHT22;8784;50.94667800;7.08448400;2022-08-14T12:16:00;34.00;41.80
17333;DHT22;8784;50.94667800;7.08448400;2022-08-14T12:18:29;34.00;41.80
17333;DHT22;8784;50.94667800;7.08448400;2022-08-14T12:21:11;34.00;42.00
17333;DHT22;8784;50.94667800;7.08448400;2022-08-14T12:23:38;33.90;41.90
17333;DHT22;8784;50.94667800;7.08448400;2022-08-14T12:26:07;33.80;42.00
17333;DHT22;8784;50.94667800;7.08448400;2022-08-14T12:28:36;33.80;42.00
17333;DHT22;8784;50.94667800;7.08448400;2022-08-14T12:31:14;33.90;42.20
17333;DHT22;8784;50.94667800;7.08448400;2022-08-14T12:33:42;34.00;42.20
17333;DHT22;8784;50.94667800;7.08448400;2022-08-14T12:36:19;34.00;42.10
17333;DHT22;8784;50.94667800;7.08448400;2022-08-14T12:38:46;34.00;42.00
17333;DHT22;8784;50.94667800;7.08448400;2022-08-14T12:41:18;33.90;41.90
17333;DHT22;8784;50.94667800;7.08448400;2022-08-14T12:43:49;33.60;42.00
17333;DHT22;8784;50.94667800;7.08448400;2022-08-14T12:46:26;33.40;42.20
17333;DHT22;8784;50.94667800;7.08448400;2022-08-14T12:48:55;33.20;42.50
17333;DHT22;8784;50.94667800;7.08448400;2022-08-14T12:51:24;33.10;43.20
17333;DHT22;8784;50.94667800;7.08448400;2022-08-14T12:53:53;33.10;42.70
17333;DHT22;8784;50.94667800;7.08448400;2022-08-14T12:56:21;33.10;42.60
17333;DHT22;8784;50.94667800;7.08448400;2022-08-14T12:58:53;33.10;42.70
17333;DHT22;8784;50.94667800;7.08448400;2022-08-14T13:01:22;33.10;42.80
17333;DHT22;8784;50.94667800;7.08448400;2022-08-14T13:03:49;33.10;42.70
17333;DHT22;8784;50.94667800;7.08448400;2022-08-14T13:06:17;33.00;42.60
17333;DHT22;8784;50.94667800;7.08448400;2022-08-14T13:08:45;32.90;42.60
17333;DHT22;8784;50.94667800;7.08448400;2022-08-14T13:11:13;32.90;42.70
17333;DHT22;8784;50.94667800;7.08448400;2022-08-14T13:13:43;33.00;42.60
17333;DHT22;8784;50.94667800;7.08448400;2022-08-14T13:16:13;33.00;42.60
17333;DHT22;8784;50.94667800;7.08448400;2022-08-14T13:18:42;32.90;42.80
17333;DHT22;8784;50.94667800;7.08448400;2022-08-14T13:21:12;32.90;42.80
17333;DHT22;8784;50.94667800;7.08448400;2022-08-14T13:23:41;32.90;42.90
17333;DHT22;8784;50.94667800;7.08448400;2022-08-14T13:26:09;33.00;43.10
17333;DHT22;8784;50.94667800;7.08448400;2022-08-14T13:28:39;33.10;43.10
17333;DHT22;8784;50.94667800;7.08448400;2022-08-14T13:31:08;33.10;43.10
17333;DHT22;8784;50.94667800;7.08448400;2022-08-14T13:33:37;33.20;43.00
17333;DHT22;8784;50.94667800;7.08448400;2022-08-14T13:36:05;33.20;43.00
17333;DHT22;8784;50.94667800;7.08448400;2022-08-14T13:38:32;33.10;43.00
17333;DHT22;8784;50.94667800;7.08448400;2022-08-14T13:40:59;33.20;43.10
17333;DHT22;8784;50.94667800;7.08448400;2022-08-14T13:43:28;33.20;43.10
17333;DHT22;8784;50.94667800;7.08448400;2022-08-14T13:45:55;33.10;43.00
17333;DHT22;8784;50.94667800;7.08448400;2022-08-14T13:48:22;33.30;43.10